sensor_id;sensor_type;location;lat;lon;timestamp;temperature;humidity
4356;DHT22;64374;51.482;7.408;2024-02-04T00:00:25;11.70;99.90
4356;DHT22;64374;51.482;7.408;2024-02-04T00:02:53;11.50;99.90
4356;DHT22;64374;51.482;7.408;2024-02-04T00:05:22;11.60;99.90
4356;DHT22;64374;51.482;7.408;2024-02-04T00:07:51;11.50;99.90
4356;DHT22;64374;51.482;7.408;2024-02-04T00:10:19;11.60;99.90
4356;DHT22;64374;51.482;7.408;2024-02-04T00:12:49;11.70;99.90
4356;DHT22;64374;51.482;7.408;2024-02-04T00:15:17;11.70;99.90
4356;DHT22;64374;51.482;7.408;2024-02-04T00:17:46;11.70;99.90
4356;DHT22;64374;51.482;7.408;2024-02-04T00:20:14;11.60;99.90
4356;DHT22;64374;51.482;7.408;2024-02-04T00:22:56;11.70;99.90
4356;DHT22;64374;51.482;7.408;2024-02-04T00:25:24;11.50;99.90
4356;DHT22;64374;51.482;7.408;2024-02-04T00:27:56;11.40;99.90
4356;DHT22;64374;51.482;7.408;2024-02-04T00:30:25;11.30;99.90
4356;DHT22;64374;51.482;7.408;2024-02-04T00:32:54;11.50;99.90
4356;DHT22;64374;51.482;7.408;2024-02-04T00:35:30;11.70;99.90
4356;DHT22;64374;51.482;7.408;2024-02-04T00:38:01;11.40;99.90
4356;DHT22;64374;51.482;7.408;2024-02-04T00:40:30;11.70;99.90
4356;DHT22;64374;51.482;7.408;2024-02-04T00:43:03;11.50;99.90
4356;DHT22;64374;51.482;7.408;2024-02-04T00:45:31;11.40;99.90
4356;DHT22;64374;51.482;7.408;2024-02-04T00:48:08;11.30;99.90
4356;DHT22;64374;51.482;7.408;2024-02-04T00:50:38;11.40;99.90
4356;DHT22;64374;51.482;7.408;2024-02-04T00:53:05;11.10;99.90
4356;DHT22;64374;51.482;7.408;2024-02-04T00:55:33;11.00;99.90
4356;DHT22;64374;51.482;7.408;2024-02-04T00:58:03;10.90;99.90
4356;DHT22;64374;51.482;7.408;2024-02-04T01:00:31;11.00;99.90
4356;DHT22;64374;51.482;7.408;2024-02-04T01:02:59;10.90;99.90
4356;DHT22;64374;51.482;7.408;2024-02-04T01:05:30;10.90;99.90
4356;DHT22;64374;51.482;7.408;2024-02-04T01:07:58;11.20;99.90
4356;DHT22;64374;51.482;7.408;2024-02-04T01:10:30;11.10;99.90
4356;DHT22;64374;51.482;7.408;2024-02-04T01:12:58;11.20;99.90
4356;DHT22;64374;51.482;7.408;2024-02-04T01:15:28;11.30;99.90
4356;DHT22;64374;51.482;7.408;2024-02-04T01:17:56;11.10;99.90
4356;DHT22;64374;51.482;7.408;2024-02-04T01:20:33;11.30;99.90
4356;DHT22;64374;51.482;7.408;2024-02-04T01:23:02;11.40;99.90
4356;DHT22;64374;51.482;7.408;2024-02-04T01:25:34;11.30;99.90
4356;DHT22;64374;51.482;7.408;2024-02-04T01:28:09;11.20;99.90
4356;DHT22;64374;51.482;7.408;2024-02-04T01:30:39;11.30;99.90
4356;DHT22;64374;51.482;7.408;2024-02-04T01:33:08;11.30;99.90
4356;DHT22;64374;51.482;7.408;2024-02-04T01:35:37;11.10;99.90
4356;DHT22;64374;51.482;7.408;2024-02-04T01:38:12;11.40;99.90
4356;DHT22;64374;51.482;7.408;2024-02-04T01:40:41;11.50;99.90
4356;DHT22;64374;51.482;7.408;2024-02-04T01:43:10;11.50;99.90
4356;DHT22;64374;51.482;7.408;2024-02-04T01:45:42;11.10;99.90
4356;DHT22;64374;51.482;7.408;2024-02-04T01:48:10;11.00;99.90
4356;DHT22;64374;51.482;7.408;2024-02-04T01:50:40;10.90;99.90
4356;DHT22;64374;51.482;7.408;2024-02-04T01:53:08;10.90;99.90
4356;DHT22;64374;51.482;7.408;2024-02-04T01:55:36;11.10;99.90
4356;DHT22;64374;51.482;7.408;2024-02-04T01:58:07;11.00;99.90
4356;DHT22;64374;51.482;7.408;2024-02-04T02:00:35;11.00;99.90
4356;DHT22;64374;51.482;7.408;2024-02-04T02:03:12;11.10;99.90
4356;DHT22;64374;51.482;7.408;2024-02-04T02:05:40;11.20;99.90
4356;DHT22;64374;51.482;7.408;2024-02-04T02:08:08;11.00;99.90
4356;DHT22;64374;51.482;7.408;2024-02-04T02:10:40;11.00;99.90
4356;DHT22;64374;51.482;7.408;2024-02-04T02:13:14;10.90;99.90
4356;DHT22;64374;51.482;7.408;2024-02-04T02:15:47;11.10;99.90
4356;DHT22;64374;51.482;7.408;2024-02-04T02:18:23;11.00;99.90
4356;DHT22;64374;51.482;7.408;2024-02-04T02:21:03;10.90;99.90
4356;DHT22;64374;51.482;7.408;2024-02-04T02:23:40;11.20;99.90
4356;DHT22;64374;51.482;7.408;2024-02-04T02:26:12;11.00;99.90
4356;DHT22;64374;51.482;7.408;2024-02-04T02:28:42;10.70;99.90
4356;DHT22;64374;51.482;7.408;2024-02-04T02:31:10;10.80;99.90
4356;DHT22;64374;51.482;7.408;2024-02-04T02:33:40;11.00;99.90
4356;DHT22;64374;51.482;7.408;2024-02-04T02:36:10;11.30;99.90
4356;DHT22;64374;51.482;7.408;2024-02-04T02:38:42;11.30;99.90
4356;DHT22;64374;51.482;7.408;2024-02-04T02:41:16;11.50;99.90
4356;DHT22;64374;51.482;7.408;2024-02-04T02:43:46;11.50;99.90
4356;DHT22;64374;51.482;7.408;2024-02-04T02:46:16;11.70;99.90
4356;DHT22;64374;51.482;7.408;2024-02-04T02:48:45;11.50;99.90
4356;DHT22;64374;51.482;7.408;2024-02-04T02:51:15;11.50;99.90
4356;DHT22;64374;51.482;7.408;2024-02-04T02:53:46;11.30;99.90
4356;DHT22;64374;51.482;7.408;2024-02-04T02:56:13;11.20;99.90
4356;DHT22;64374;51.482;7.408;2024-02-04T02:58:46;11.20;99.90
4356;DHT22;64374;51.482;7.408;2024-02-04T03:01:14;11.40;99.90
4356;DHT22;64374;51.482;7.408;2024-02-04T03:03:42;11.50;99.90
4356;DHT22;64374;51.482;7.408;2024-02-04T03:06:12;11.50;99.90
4356;DHT22;64374;51.482;7.408;2024-02-04T03:08:40;11.40;99.90
4356;DHT22;64374;51.482;7.408;2024-02-04T03:11:08;11.60;99.90
4356;DHT22;64374;51.482;7.408;2024-02-04T03:13:40;11.60;99.90
4356;DHT22;64374;51.482;7.408;2024-02-04T03:16:12;11.50;99.90
4356;DHT22;64374;51.482;7.408;2024-02-04T03:18:43;11.40;99.90
4356;DHT22;64374;51.482;7.408;2024-02-04T03:21:12;11.20;99.90
4356;DHT22;64374;51.482;7.408;2024-02-04T03:23:42;11.40;99.90
4356;DHT22;64374;51.482;7.408;2024-02-04T03:26:10;11.40;99.90
4356;DHT22;64374;51.482;7.408;2024-02-04T03:28:41;11.50;99.90
4356;DHT22;64374;51.482;7.408;2024-02-04T03:31:09;11.50;99.90
4356;DHT22;64374;51.482;7.408;2024-02-04T03:33:39;11.40;99.90
4356;DHT22;64374;51.482;7.408;2024-02-04T03:36:09;11.10;99.90
4356;DHT22;64374;51.482;7.408;2024-02-04T03:38:40;11.20;99.90
4356;DHT22;64374;51.482;7.408;2024-02-04T03:41:08;11.20;99.90
4356;DHT22;64374;51.482;7.408;2024-02-04T03:43:37;11.20;99.90
4356;DHT22;64374;51.482;7.408;2024-02-04T03:46:05;11.20;99.90
4356;DHT22;64374;51.482;7.408;2024-02-04T03:48:33;11.30;99.90
4356;DHT22;64374;51.482;7.408;2024-02-04T03:51:04;11.40;99.90
4356;DHT22;64374;51.482;7.408;2024-02-04T03:53:34;11.60;99.90
4356;DHT22;64374;51.482;7.408;2024-02-04T03:56:03;11.80;99.90
4356;DHT22;64374;51.482;7.408;2024-02-04T03:58:32;11.60;99.90
4356;DHT22;64374;51.482;7.408;2024-02-04T04:01:03;11.70;99.90
4356;DHT22;64374;51.482;7.408;2024-02-04T04:03:34;12.00;99.90
4356;DHT22;64374;51.482;7.408;2024-02-04T04:06:04;11.80;99.90
4356;DHT22;64374;51.482;7.408;2024-02-04T04:08:32;11.90;99.90
4356;DHT22;64374;51.482;7.408;2024-02-04T04:11:01;12.20;99.90
4356;DHT22;64374;51.482;7.408;2024-02-04T04:13:31;12.10;99.90
4356;DHT22;64374;51.482;7.408;2024-02-04T04:16:05;12.20;99.90
4356;DHT22;64374;51.482;7.408;2024-02-04T04:18:40;11.90;99.90
4356;DHT22;64374;51.482;7.408;2024-02-04T04:21:15;12.00;99.90
4356;DHT22;64374;51.482;7.408;2024-02-04T04:23:43;12.10;99.90
4356;DHT22;64374;51.482;7.408;2024-02-04T04:26:11;12.20;99.90
4356;DHT22;64374;51.482;7.408;2024-02-04T04:28:40;12.00;99.90
4356;DHT22;64374;51.482;7.408;2024-02-04T04:31:15;12.20;99.90
4356;DHT22;64374;51.482;7.408;2024-02-04T04:33:43;12.00;99.90
4356;DHT22;64374;51.482;7.408;2024-02-04T04:36:17;12.20;99.90
4356;DHT22;64374;51.482;7.408;2024-02-04T04:38:47;11.90;99.90
4356;DHT22;64374;51.482;7.408;2024-02-04T04:41:17;11.90;99.90
4356;DHT22;64374;51.482;7.408;2024-02-04T04:43:48;11.80;99.90
4356;DHT22;64374;51.482;7.408;2024-02-04T04:46:17;12.00;99.90
4356;DHT22;64374;51.482;7.408;2024-02-04T04:48:47;11.90;99.90
4356;DHT22;64374;51.482;7.408;2024-02-04T04:51:25;12.00;99.90
4356;DHT22;64374;51.482;7.408;2024-02-04T04:53:54;11.50;99.90
4356;DHT22;64374;51.482;7.408;2024-02-04T04:56:23;11.70;99.90
4356;DHT22;64374;51.482;7.408;2024-02-04T04:58:51;11.50;99.90
4356;DHT22;64374;51.482;7.408;2024-02-04T05:01:19;11.50;99.90
4356;DHT22;64374;51.482;7.408;2024-02-04T05:03:50;11.40;99.90
4356;DHT22;64374;51.482;7.408;2024-02-04T05:06:22;11.80;99.90
4356;DHT22;64374;51.482;7.408;2024-02-04T05:08:50;11.60;99.90
4356;DHT22;64374;51.482;7.408;2024-02-04T05:11:18;11.50;99.90
4356;DHT22;64374;51.482;7.408;2024-02-04T05:13:53;11.40;99.90
4356;DHT22;64374;51.482;7.408;2024-02-04T05:16:21;11.30;99.90
4356;DHT22;64374;51.482;7.408;2024-02-04T05:18:49;11.40;99.90
4356;DHT22;64374;51.482;7.408;2024-02-04T05:21:18;11.50;99.90
4356;DHT22;64374;51.482;7.408;2024-02-04T05:23:47;11.50;99.90
4356;DHT22;64374;51.482;7.408;2024-02-04T05:26:17;11.40;99.90
4356;DHT22;64374;51.482;7.408;2024-02-04T05:28:45;11.60;99.90
4356;DHT22;64374;51.482;7.408;2024-02-04T05:31:13;11.80;99.90
4356;DHT22;64374;51.482;7.408;2024-02-04T05:33:44;11.50;99.90
4356;DHT22;64374;51.482;7.408;2024-02-04T05:36:12;11.40;99.90
4356;DHT22;64374;51.482;7.408;2024-02-04T05:38:44;11.40;99.90
4356;DHT22;64374;51.482;7.408;2024-02-04T05:41:14;11.50;99.90
4356;DHT22;64374;51.482;7.408;2024-02-04T05:43:42;11.70;99.90
4356;DHT22;64374;51.482;7.408;2024-02-04T05:46:13;11.80;99.90
4356;DHT22;64374;51.482;7.408;2024-02-04T05:48:42;11.70;99.90
4356;DHT22;64374;51.482;7.408;2024-02-04T05:51:13;11.60;99.90
4356;DHT22;64374;51.482;7.408;2024-02-04T05:53:43;11.50;99.90
4356;DHT22;64374;51.482;7.408;2024-02-04T05:56:11;11.70;99.90
4356;DHT22;64374;51.482;7.408;2024-02-04T05:58:43;11.50;99.90
4356;DHT22;64374;51.482;7.408;2024-02-04T06:01:14;11.70;99.90
4356;DHT22;64374;51.482;7.408;2024-02-04T06:03:50;11.50;99.90
4356;DHT22;64374;51.482;7.408;2024-02-04T06:06:21;11.40;99.90
4356;DHT22;64374;51.482;7.408;2024-02-04T06:08:49;11.60;99.90
4356;DHT22;64374;51.482;7.408;2024-02-04T06:11:20;11.60;99.90
4356;DHT22;64374;51.482;7.408;2024-02-04T06:13:50;11.30;99.90
4356;DHT22;64374;51.482;7.408;2024-02-04T06:16:19;11.20;99.90
4356;DHT22;64374;51.482;7.408;2024-02-04T06:18:49;11.10;99.90
4356;DHT22;64374;51.482;7.408;2024-02-04T06:21:17;11.30;99.90
4356;DHT22;64374;51.482;7.408;2024-02-04T06:23:45;11.60;99.90
4356;DHT22;64374;51.482;7.408;2024-02-04T06:26:19;11.80;99.90
4356;DHT22;64374;51.482;7.408;2024-02-04T06:28:48;11.80;99.90
4356;DHT22;64374;51.482;7.408;2024-02-04T06:31:22;11.90;99.90
4356;DHT22;64374;51.482;7.408;2024-02-04T06:33:59;11.70;99.90
4356;DHT22;64374;51.482;7.408;2024-02-04T06:36:28;11.60;99.90
4356;DHT22;64374;51.482;7.408;2024-02-04T06:38:56;11.70;99.90
4356;DHT22;64374;51.482;7.408;2024-02-04T06:41:24;11.90;99.90
4356;DHT22;64374;51.482;7.408;2024-02-04T06:43:53;12.00;99.90
4356;DHT22;64374;51.482;7.408;2024-02-04T06:46:38;12.10;99.90
4356;DHT22;64374;51.482;7.408;2024-02-04T06:49:08;11.90;99.90
4356;DHT22;64374;51.482;7.408;2024-02-04T06:51:37;11.50;99.90
4356;DHT22;64374;51.482;7.408;2024-02-04T06:54:05;11.30;99.90
4356;DHT22;64374;51.482;7.408;2024-02-04T06:56:33;11.40;99.90
4356;DHT22;64374;51.482;7.408;2024-02-04T06:59:01;11.50;99.90
4356;DHT22;64374;51.482;7.408;2024-02-04T07:01:29;11.50;99.90
4356;DHT22;64374;51.482;7.408;2024-02-04T07:03:59;11.10;99.90
4356;DHT22;64374;51.482;7.408;2024-02-04T07:06:30;11.30;99.90
4356;DHT22;64374;51.482;7.408;2024-02-04T07:09:01;11.60;99.90
4356;DHT22;64374;51.482;7.408;2024-02-04T07:11:34;11.20;99.90
4356;DHT22;64374;51.482;7.408;2024-02-04T07:14:02;11.20;99.90
4356;DHT22;64374;51.482;7.408;2024-02-04T07:16:30;11.00;99.90
4356;DHT22;64374;51.482;7.408;2024-02-04T07:18:59;11.30;99.90
4356;DHT22;64374;51.482;7.408;2024-02-04T07:21:31;11.30;99.90
4356;DHT22;64374;51.482;7.408;2024-02-04T07:23:59;11.10;99.90
4356;DHT22;64374;51.482;7.408;2024-02-04T07:26:27;11.10;99.90
4356;DHT22;64374;51.482;7.408;2024-02-04T07:28:55;11.30;99.90
4356;DHT22;64374;51.482;7.408;2024-02-04T07:31:23;11.60;99.90
4356;DHT22;64374;51.482;7.408;2024-02-04T07:33:54;11.50;99.90
4356;DHT22;64374;51.482;7.408;2024-02-04T07:36:24;11.30;99.90
4356;DHT22;64374;51.482;7.408;2024-02-04T07:38:55;11.30;99.90
4356;DHT22;64374;51.482;7.408;2024-02-04T07:41:28;11.20;99.90
4356;DHT22;64374;51.482;7.408;2024-02-04T07:43:56;11.30;99.90
4356;DHT22;64374;51.482;7.408;2024-02-04T07:46:32;11.30;99.90
4356;DHT22;64374;51.482;7.408;2024-02-04T07:49:05;11.50;99.90
4356;DHT22;64374;51.482;7.408;2024-02-04T07:51:35;11.40;99.90
4356;DHT22;64374;51.482;7.408;2024-02-04T07:54:04;11.50;99.90
4356;DHT22;64374;51.482;7.408;2024-02-04T07:56:35;11.50;99.90
4356;DHT22;64374;51.482;7.408;2024-02-04T07:59:07;11.40;99.90
4356;DHT22;64374;51.482;7.408;2024-02-04T08:01:40;11.30;99.90
4356;DHT22;64374;51.482;7.408;2024-02-04T08:04:10;11.50;99.90
4356;DHT22;64374;51.482;7.408;2024-02-04T08:06:40;11.40;99.90
4356;DHT22;64374;51.482;7.408;2024-02-04T08:09:08;11.10;99.90
4356;DHT22;64374;51.482;7.408;2024-02-04T08:11:37;11.10;99.90
4356;DHT22;64374;51.482;7.408;2024-02-04T08:14:05;11.20;99.90
4356;DHT22;64374;51.482;7.408;2024-02-04T08:16:33;11.30;99.90
4356;DHT22;64374;51.482;7.408;2024-02-04T08:19:01;11.30;99.90
4356;DHT22;64374;51.482;7.408;2024-02-04T08:21:29;11.60;99.90
4356;DHT22;64374;51.482;7.408;2024-02-04T08:24:02;11.50;99.90
4356;DHT22;64374;51.482;7.408;2024-02-04T08:26:30;11.60;99.90
4356;DHT22;64374;51.482;7.408;2024-02-04T08:28:59;11.30;99.90
4356;DHT22;64374;51.482;7.408;2024-02-04T08:31:35;11.30;99.90
4356;DHT22;64374;51.482;7.408;2024-02-04T08:34:05;11.10;99.90
4356;DHT22;64374;51.482;7.408;2024-02-04T08:36:34;11.20;99.90
4356;DHT22;64374;51.482;7.408;2024-02-04T08:39:07;11.10;99.90
4356;DHT22;64374;51.482;7.408;2024-02-04T08:41:36;11.20;99.90
4356;DHT22;64374;51.482;7.408;2024-02-04T08:44:06;11.40;99.90
4356;DHT22;64374;51.482;7.408;2024-02-04T08:46:48;11.30;99.90
4356;DHT22;64374;51.482;7.408;2024-02-04T08:49:19;11.40;99.90
4356;DHT22;64374;51.482;7.408;2024-02-04T08:51:48;11.40;99.90
4356;DHT22;64374;51.482;7.408;2024-02-04T08:54:19;11.30;99.90
4356;DHT22;64374;51.482;7.408;2024-02-04T08:56:47;11.20;99.90
4356;DHT22;64374;51.482;7.408;2024-02-04T08:59:15;11.40;99.90
4356;DHT22;64374;51.482;7.408;2024-02-04T09:01:44;11.50;99.90
4356;DHT22;64374;51.482;7.408;2024-02-04T09:04:12;11.50;99.90
4356;DHT22;64374;51.482;7.408;2024-02-04T09:06:40;11.40;99.90
4356;DHT22;64374;51.482;7.408;2024-02-04T09:09:09;11.40;99.90
4356;DHT22;64374;51.482;7.408;2024-02-04T09:11:41;11.60;99.90
4356;DHT22;64374;51.482;7.408;2024-02-04T09:14:17;11.50;99.90
4356;DHT22;64374;51.482;7.408;2024-02-04T09:16:45;11.50;99.90
4356;DHT22;64374;51.482;7.408;2024-02-04T09:19:29;11.70;99.90
4356;DHT22;64374;51.482;7.408;2024-02-04T09:22:03;11.60;99.90
4356;DHT22;64374;51.482;7.408;2024-02-04T09:24:34;11.70;99.90
4356;DHT22;64374;51.482;7.408;2024-02-04T09:27:06;11.50;99.90
4356;DHT22;64374;51.482;7.408;2024-02-04T09:29:34;11.70;99.90
4356;DHT22;64374;51.482;7.408;2024-02-04T09:32:05;11.60;99.90
4356;DHT22;64374;51.482;7.408;2024-02-04T09:34:34;11.60;99.90
4356;DHT22;64374;51.482;7.408;2024-02-04T09:37:03;11.60;99.90
4356;DHT22;64374;51.482;7.408;2024-02-04T09:39:32;11.50;99.90
4356;DHT22;64374;51.482;7.408;2024-02-04T09:42:03;11.50;99.90
4356;DHT22;64374;51.482;7.408;2024-02-04T09:44:33;11.70;99.90
4356;DHT22;64374;51.482;7.408;2024-02-04T09:47:03;11.90;99.90
4356;DHT22;64374;51.482;7.408;2024-02-04T09:49:32;11.80;99.90
4356;DHT22;64374;51.482;7.408;2024-02-04T09:52:04;12.10;99.90
4356;DHT22;64374;51.482;7.408;2024-02-04T09:54:38;12.50;99.90
4356;DHT22;64374;51.482;7.408;2024-02-04T09:57:12;12.50;99.90
4356;DHT22;64374;51.482;7.408;2024-02-04T09:59:43;12.50;99.90
4356;DHT22;64374;51.482;7.408;2024-02-04T10:02:11;11.80;99.90
4356;DHT22;64374;51.482;7.408;2024-02-04T10:04:43;11.50;99.90
4356;DHT22;64374;51.482;7.408;2024-02-04T10:07:11;11.20;99.90
4356;DHT22;64374;51.482;7.408;2024-02-04T10:09:41;11.20;99.90
4356;DHT22;64374;51.482;7.408;2024-02-04T10:12:11;11.40;99.90
4356;DHT22;64374;51.482;7.408;2024-02-04T10:14:43;11.30;99.90
4356;DHT22;64374;51.482;7.408;2024-02-04T10:17:11;11.30;99.90
4356;DHT22;64374;51.482;7.408;2024-02-04T10:19:41;11.30;99.90
4356;DHT22;64374;51.482;7.408;2024-02-04T10:22:09;11.10;99.90
4356;DHT22;64374;51.482;7.408;2024-02-04T10:24:38;11.10;99.90
4356;DHT22;64374;51.482;7.408;2024-02-04T10:27:06;11.10;99.90
4356;DHT22;64374;51.482;7.408;2024-02-04T10:29:43;11.20;99.90
4356;DHT22;64374;51.482;7.408;2024-02-04T10:32:11;11.40;99.90
4356;DHT22;64374;51.482;7.408;2024-02-04T10:34:46;11.30;99.90
4356;DHT22;64374;51.482;7.408;2024-02-04T10:37:14;11.60;99.90
4356;DHT22;64374;51.482;7.408;2024-02-04T10:39:43;11.60;99.90
4356;DHT22;64374;51.482;7.408;2024-02-04T10:42:15;11.40;99.90
4356;DHT22;64374;51.482;7.408;2024-02-04T10:44:46;11.50;99.90
4356;DHT22;64374;51.482;7.408;2024-02-04T10:47:16;11.30;99.90
4356;DHT22;64374;51.482;7.408;2024-02-04T10:49:46;11.50;99.90
4356;DHT22;64374;51.482;7.408;2024-02-04T10:52:17;11.30;99.90
4356;DHT22;64374;51.482;7.408;2024-02-04T10:54:46;11.30;99.90
4356;DHT22;64374;51.482;7.408;2024-02-04T10:57:17;11.50;99.90
4356;DHT22;64374;51.482;7.408;2024-02-04T10:59:53;11.40;99.90
4356;DHT22;64374;51.482;7.408;2024-02-04T11:02:21;11.30;99.90
4356;DHT22;64374;51.482;7.408;2024-02-04T11:04:51;11.30;99.90
4356;DHT22;64374;51.482;7.408;2024-02-04T11:07:21;11.10;99.90
4356;DHT22;64374;51.482;7.408;2024-02-04T11:09:49;11.30;99.90
4356;DHT22;64374;51.482;7.408;2024-02-04T11:12:18;11.20;99.90
4356;DHT22;64374;51.482;7.408;2024-02-04T11:14:48;11.30;99.90
4356;DHT22;64374;51.482;7.408;2024-02-04T11:17:24;11.40;99.90
4356;DHT22;64374;51.482;7.408;2024-02-04T11:19:58;11.40;99.90
4356;DHT22;64374;51.482;7.408;2024-02-04T11:22:42;11.70;99.90
4356;DHT22;64374;51.482;7.408;2024-02-04T11:25:26;11.90;99.90
4356;DHT22;64374;51.482;7.408;2024-02-04T11:27:57;11.90;99.90
4356;DHT22;64374;51.482;7.408;2024-02-04T11:30:25;12.00;99.90
4356;DHT22;64374;51.482;7.408;2024-02-04T11:32:55;12.30;99.90
4356;DHT22;64374;51.482;7.408;2024-02-04T11:35:26;12.00;99.90
4356;DHT22;64374;51.482;7.408;2024-02-04T11:37:54;12.10;99.90
4356;DHT22;64374;51.482;7.408;2024-02-04T11:40:29;12.10;99.90
4356;DHT22;64374;51.482;7.408;2024-02-04T11:43:04;12.30;99.90
4356;DHT22;64374;51.482;7.408;2024-02-04T11:45:32;12.00;99.90
4356;DHT22;64374;51.482;7.408;2024-02-04T11:48:02;12.00;99.90
4356;DHT22;64374;51.482;7.408;2024-02-04T11:50:33;11.80;99.90
4356;DHT22;64374;51.482;7.408;2024-02-04T11:53:05;11.80;99.90
4356;DHT22;64374;51.482;7.408;2024-02-04T11:55:33;12.00;99.90
4356;DHT22;64374;51.482;7.408;2024-02-04T11:58:03;12.00;99.90
4356;DHT22;64374;51.482;7.408;2024-02-04T12:00:32;12.20;99.90
4356;DHT22;64374;51.482;7.408;2024-02-04T12:03:05;12.20;99.90
4356;DHT22;64374;51.482;7.408;2024-02-04T12:05:34;12.00;99.90
4356;DHT22;64374;51.482;7.408;2024-02-04T12:08:06;11.90;99.90
4356;DHT22;64374;51.482;7.408;2024-02-04T12:10:36;12.20;99.90
4356;DHT22;64374;51.482;7.408;2024-02-04T12:13:05;12.10;99.90
4356;DHT22;64374;51.482;7.408;2024-02-04T12:15:34;11.90;99.90
4356;DHT22;64374;51.482;7.408;2024-02-04T12:18:08;11.90;99.90
4356;DHT22;64374;51.482;7.408;2024-02-04T12:20:37;12.00;99.90
4356;DHT22;64374;51.482;7.408;2024-02-04T12:23:07;12.10;99.90
4356;DHT22;64374;51.482;7.408;2024-02-04T12:25:38;12.00;99.90
4356;DHT22;64374;51.482;7.408;2024-02-04T12:28:10;12.20;99.90
4356;DHT22;64374;51.482;7.408;2024-02-04T12:30:39;12.40;99.90
4356;DHT22;64374;51.482;7.408;2024-02-04T12:33:09;11.90;99.90
4356;DHT22;64374;51.482;7.408;2024-02-04T12:35:38;11.90;99.90
4356;DHT22;64374;51.482;7.408;2024-02-04T12:38:06;11.90;99.90
4356;DHT22;64374;51.482;7.408;2024-02-04T12:40:34;11.90;99.90
4356;DHT22;64374;51.482;7.408;2024-02-04T12:43:03;11.70;99.90
4356;DHT22;64374;51.482;7.408;2024-02-04T12:45:36;11.40;99.90
4356;DHT22;64374;51.482;7.408;2024-02-04T12:48:05;11.40;99.90
4356;DHT22;64374;51.482;7.408;2024-02-04T12:50:38;11.60;99.90
4356;DHT22;64374;51.482;7.408;2024-02-04T12:53:08;11.90;99.90
4356;DHT22;64374;51.482;7.408;2024-02-04T12:55:38;11.90;99.90
4356;DHT22;64374;51.482;7.408;2024-02-04T12:58:07;11.80;99.90
4356;DHT22;64374;51.482;7.408;2024-02-04T13:00:37;11.60;99.90
4356;DHT22;64374;51.482;7.408;2024-02-04T13:03:09;11.50;99.90
4356;DHT22;64374;51.482;7.408;2024-02-04T13:05:39;11.90;99.90
4356;DHT22;64374;51.482;7.408;2024-02-04T13:08:07;11.60;99.90
4356;DHT22;64374;51.482;7.408;2024-02-04T13:10:37;11.70;99.90
4356;DHT22;64374;51.482;7.408;2024-02-04T13:13:10;11.90;99.90
4356;DHT22;64374;51.482;7.408;2024-02-04T13:15:42;11.70;99.90
4356;DHT22;64374;51.482;7.408;2024-02-04T13:18:11;11.60;99.90
4356;DHT22;64374;51.482;7.408;2024-02-04T13:20:43;11.60;99.90
4356;DHT22;64374;51.482;7.408;2024-02-04T13:23:13;11.50;99.90
4356;DHT22;64374;51.482;7.408;2024-02-04T13:25:41;11.60;99.90
4356;DHT22;64374;51.482;7.408;2024-02-04T13:28:12;11.40;99.90
4356;DHT22;64374;51.482;7.408;2024-02-04T13:30:41;11.50;99.90
4356;DHT22;64374;51.482;7.408;2024-02-04T13:33:11;11.60;99.90
4356;DHT22;64374;51.482;7.408;2024-02-04T13:35:40;11.60;99.90
4356;DHT22;64374;51.482;7.408;2024-02-04T13:38:10;11.80;99.90
4356;DHT22;64374;51.482;7.408;2024-02-04T13:40:40;11.70;99.90
4356;DHT22;64374;51.482;7.408;2024-02-04T13:43:09;11.80;99.90
4356;DHT22;64374;51.482;7.408;2024-02-04T13:45:40;11.50;99.90
4356;DHT22;64374;51.482;7.408;2024-02-04T13:48:08;11.60;99.90
4356;DHT22;64374;51.482;7.408;2024-02-04T13:50:36;11.90;99.90
4356;DHT22;64374;51.482;7.408;2024-02-04T13:53:05;11.80;99.90
4356;DHT22;64374;51.482;7.408;2024-02-04T13:55:34;11.60;99.90
4356;DHT22;64374;51.482;7.408;2024-02-04T13:58:05;11.60;99.90
4356;DHT22;64374;51.482;7.408;2024-02-04T14:00:39;11.60;99.90
4356;DHT22;64374;51.482;7.408;2024-02-04T14:03:08;11.60;99.90
4356;DHT22;64374;51.482;7.408;2024-02-04T14:05:40;11.80;99.90
4356;DHT22;64374;51.482;7.408;2024-02-04T14:08:08;11.90;99.90
4356;DHT22;64374;51.482;7.408;2024-02-04T14:10:40;11.70;99.90
4356;DHT22;64374;51.482;7.408;2024-02-04T14:13:10;11.30;99.90
4356;DHT22;64374;51.482;7.408;2024-02-04T14:15:39;11.50;99.90
4356;DHT22;64374;51.482;7.408;2024-02-04T14:18:14;11.50;99.90
4356;DHT22;64374;51.482;7.408;2024-02-04T14:20:44;11.60;99.90
4356;DHT22;64374;51.482;7.408;2024-02-04T14:23:12;11.50;99.90
4356;DHT22;64374;51.482;7.408;2024-02-04T14:25:45;11.30;99.90
4356;DHT22;64374;51.482;7.408;2024-02-04T14:28:14;11.50;99.90
4356;DHT22;64374;51.482;7.408;2024-02-04T14:30:45;11.50;99.90
4356;DHT22;64374;51.482;7.408;2024-02-04T14:33:14;11.60;99.90
4356;DHT22;64374;51.482;7.408;2024-02-04T14:35:43;11.60;99.90
4356;DHT22;64374;51.482;7.408;2024-02-04T14:38:14;12.00;99.90
4356;DHT22;64374;51.482;7.408;2024-02-04T14:40:46;12.20;99.90
4356;DHT22;64374;51.482;7.408;2024-02-04T14:43:17;11.90;99.90
4356;DHT22;64374;51.482;7.408;2024-02-04T14:45:52;11.80;99.90
4356;DHT22;64374;51.482;7.408;2024-02-04T14:48:20;11.80;99.90
4356;DHT22;64374;51.482;7.408;2024-02-04T14:50:48;11.90;99.90
4356;DHT22;64374;51.482;7.408;2024-02-04T14:53:16;11.60;99.90
4356;DHT22;64374;51.482;7.408;2024-02-04T14:55:49;11.50;99.90
4356;DHT22;64374;51.482;7.408;2024-02-04T14:58:17;11.70;99.90
4356;DHT22;64374;51.482;7.408;2024-02-04T15:00:45;11.90;99.90
4356;DHT22;64374;51.482;7.408;2024-02-04T15:03:15;12.10;99.90
4356;DHT22;64374;51.482;7.408;2024-02-04T15:05:44;12.10;99.90
4356;DHT22;64374;51.482;7.408;2024-02-04T15:08:12;12.10;99.90
4356;DHT22;64374;51.482;7.408;2024-02-04T15:10:49;12.20;99.90
4356;DHT22;64374;51.482;7.408;2024-02-04T15:13:17;11.90;99.90
4356;DHT22;64374;51.482;7.408;2024-02-04T15:15:47;11.60;99.90
4356;DHT22;64374;51.482;7.408;2024-02-04T15:18:15;11.60;99.90
4356;DHT22;64374;51.482;7.408;2024-02-04T15:20:45;11.60;99.90
4356;DHT22;64374;51.482;7.408;2024-02-04T15:23:13;11.30;99.90
4356;DHT22;64374;51.482;7.408;2024-02-04T15:25:50;11.50;99.90
4356;DHT22;64374;51.482;7.408;2024-02-04T15:28:23;11.60;99.90
4356;DHT22;64374;51.482;7.408;2024-02-04T15:30:52;11.60;99.90
4356;DHT22;64374;51.482;7.408;2024-02-04T15:33:22;11.80;99.90
4356;DHT22;64374;51.482;7.408;2024-02-04T15:35:58;11.80;99.90
4356;DHT22;64374;51.482;7.408;2024-02-04T15:38:26;11.50;99.90
4356;DHT22;64374;51.482;7.408;2024-02-04T15:40:58;11.60;99.90
4356;DHT22;64374;51.482;7.408;2024-02-04T15:43:26;11.60;99.90
4356;DHT22;64374;51.482;7.408;2024-02-04T15:46:02;11.80;99.90
4356;DHT22;64374;51.482;7.408;2024-02-04T15:48:34;12.10;99.90
4356;DHT22;64374;51.482;7.408;2024-02-04T15:51:06;11.80;99.90
4356;DHT22;64374;51.482;7.408;2024-02-04T15:53:34;11.70;99.90
4356;DHT22;64374;51.482;7.408;2024-02-04T15:56:06;11.50;99.90
4356;DHT22;64374;51.482;7.408;2024-02-04T15:58:34;11.50;99.90
4356;DHT22;64374;51.482;7.408;2024-02-04T16:01:08;11.40;99.90
4356;DHT22;64374;51.482;7.408;2024-02-04T16:03:38;11.70;99.90